sensor_id;sensor_type;location;lat;lon;timestamp;pressure;altitude;pressure_sealevel;temperature
78961;BMP280;68362;45.970;12.646;2024-02-04T00:00:17;102008.59;;;2.83
78961;BMP280;68362;45.970;12.646;2024-02-04T00:01:40;101999.66;;;2.87
78961;BMP280;68362;45.970;12.646;2024-02-04T00:02:42;101996.88;;;3.10
78961;BMP280;68362;45.970;12.646;2024-02-04T00:03:44;101986.41;;;3.31
78961;BMP280;68362;45.970;12.646;2024-02-04T00:04:47;101990.78;;;3.30
78961;BMP280;68362;45.970;12.646;2024-02-04T00:05:49;101983.34;;;3.46
78961;BMP280;68362;45.970;12.646;2024-02-04T00:06:52;101983.78;;;3.52
78961;BMP280;68362;45.970;12.646;2024-02-04T00:07:54;101982.53;;;3.46
78961;BMP280;68362;45.970;12.646;2024-02-04T00:08:56;101987.00;;;3.44
78961;BMP280;68362;45.970;12.646;2024-02-04T00:09:58;101991.38;;;3.34
78961;BMP280;68362;45.970;12.646;2024-02-04T00:11:01;101985.38;;;3.43
78961;BMP280;68362;45.970;12.646;2024-02-04T00:12:04;101980.19;;;3.43
78961;BMP280;68362;45.970;12.646;2024-02-04T00:13:08;101977.34;;;3.46
78961;BMP280;68362;45.970;12.646;2024-02-04T00:14:10;101974.91;;;3.14
78961;BMP280;68362;45.970;12.646;2024-02-04T00:15:12;101974.97;;;2.62
78961;BMP280;68362;45.970;12.646;2024-02-04T00:16:14;101968.16;;;2.92
78961;BMP280;68362;45.970;12.646;2024-02-04T00:17:17;101961.78;;;3.06
78961;BMP280;68362;45.970;12.646;2024-02-04T00:18:19;101969.06;;;3.21
78961;BMP280;68362;45.970;12.646;2024-02-04T00:19:21;101964.47;;;3.35
78961;BMP280;68362;45.970;12.646;2024-02-04T00:20:24;101974.28;;;3.41
78961;BMP280;68362;45.970;12.646;2024-02-04T00:21:27;101970.38;;;3.37
78961;BMP280;68362;45.970;12.646;2024-02-04T00:22:29;101977.75;;;3.51
78961;BMP280;68362;45.970;12.646;2024-02-04T00:23:31;101975.56;;;3.56
78961;BMP280;68362;45.970;12.646;2024-02-04T00:24:33;101968.47;;;3.58
78961;BMP280;68362;45.970;12.646;2024-02-04T00:25:36;101966.44;;;3.62
78961;BMP280;68362;45.970;12.646;2024-02-04T00:26:38;101963.41;;;3.66
78961;BMP280;68362;45.970;12.646;2024-02-04T00:27:40;101966.31;;;3.63
78961;BMP280;68362;45.970;12.646;2024-02-04T00:28:42;101969.16;;;3.70
78961;BMP280;68362;45.970;12.646;2024-02-04T00:29:45;101961.91;;;3.73
78961;BMP280;68362;45.970;12.646;2024-02-04T00:30:47;101962.75;;;3.74
78961;BMP280;68362;45.970;12.646;2024-02-04T00:31:51;101955.91;;;3.73
78961;BMP280;68362;45.970;12.646;2024-02-04T00:32:53;101956.72;;;3.73
78961;BMP280;68362;45.970;12.646;2024-02-04T00:33:56;101955.75;;;3.74
78961;BMP280;68362;45.970;12.646;2024-02-04T00:34:58;101958.09;;;3.48
78961;BMP280;68362;45.970;12.646;2024-02-04T00:36:00;101951.63;;;3.33
78961;BMP280;68362;45.970;12.646;2024-02-04T00:37:02;101952.47;;;3.43
78961;BMP280;68362;45.970;12.646;2024-02-04T00:38:05;101949.88;;;3.63
78961;BMP280;68362;45.970;12.646;2024-02-04T00:39:07;101956.72;;;3.73
78961;BMP280;68362;45.970;12.646;2024-02-04T00:40:10;101946.91;;;3.77
78961;BMP280;68362;45.970;12.646;2024-02-04T00:41:12;101960.28;;;3.82
78961;BMP280;68362;45.970;12.646;2024-02-04T00:42:14;101955.22;;;3.81
78961;BMP280;68362;45.970;12.646;2024-02-04T00:43:17;101964.94;;;3.69
78961;BMP280;68362;45.970;12.646;2024-02-04T00:44:19;101972.31;;;3.73
78961;BMP280;68362;45.970;12.646;2024-02-04T00:45:21;101973.41;;;3.61
78961;BMP280;68362;45.970;12.646;2024-02-04T00:46:23;101967.06;;;3.44
78961;BMP280;68362;45.970;12.646;2024-02-04T00:47:25;101967.03;;;3.25
78961;BMP280;68362;45.970;12.646;2024-02-04T00:48:27;101961.03;;;3.24
78961;BMP280;68362;45.970;12.646;2024-02-04T00:49:30;101962.38;;;3.19
78961;BMP280;68362;45.970;12.646;2024-02-04T00:50:32;101968.13;;;3.22
78961;BMP280;68362;45.970;12.646;2024-02-04T00:51:34;101961.88;;;3.44
78961;BMP280;68362;45.970;12.646;2024-02-04T00:52:38;101960.81;;;3.66
78961;BMP280;68362;45.970;12.646;2024-02-04T00:53:40;101962.88;;;3.72
78961;BMP280;68362;45.970;12.646;2024-02-04T00:54:42;101961.66;;;3.77
78961;BMP280;68362;45.970;12.646;2024-02-04T00:55:44;101963.81;;;3.71
78961;BMP280;68362;45.970;12.646;2024-02-04T00:56:46;101963.56;;;3.84
78961;BMP280;68362;45.970;12.646;2024-02-04T00:57:48;101963.72;;;3.63
78961;BMP280;68362;45.970;12.646;2024-02-04T00:58:51;101959.59;;;3.70
78961;BMP280;68362;45.970;12.646;2024-02-04T00:59:53;101967.75;;;3.66
78961;BMP280;68362;45.970;12.646;2024-02-04T01:00:55;101978.53;;;3.42
78961;BMP280;68362;45.970;12.646;2024-02-04T01:01:57;101971.19;;;3.47
78961;BMP280;68362;45.970;12.646;2024-02-04T01:03:01;101972.97;;;3.46
78961;BMP280;68362;45.970;12.646;2024-02-04T01:04:04;101974.84;;;3.35
78961;BMP280;68362;45.970;12.646;2024-02-04T01:05:07;101963.00;;;3.01
78961;BMP280;68362;45.970;12.646;2024-02-04T01:06:09;101968.88;;;3.04
78961;BMP280;68362;45.970;12.646;2024-02-04T01:07:11;101964.84;;;3.30
78961;BMP280;68362;45.970;12.646;2024-02-04T01:08:13;101972.72;;;3.19
78961;BMP280;68362;45.970;12.646;2024-02-04T01:09:15;101973.22;;;3.03
78961;BMP280;68362;45.970;12.646;2024-02-04T01:10:17;101974.50;;;3.18
78961;BMP280;68362;45.970;12.646;2024-02-04T01:11:20;101975.91;;;3.22
78961;BMP280;68362;45.970;12.646;2024-02-04T01:12:22;101973.34;;;3.42
78961;BMP280;68362;45.970;12.646;2024-02-04T01:13:24;101971.72;;;3.50
78961;BMP280;68362;45.970;12.646;2024-02-04T01:14:26;101968.47;;;3.58
78961;BMP280;68362;45.970;12.646;2024-02-04T01:15:29;101975.00;;;3.53
78961;BMP280;68362;45.970;12.646;2024-02-04T01:16:31;101967.31;;;3.32
78961;BMP280;68362;45.970;12.646;2024-02-04T01:17:33;101979.28;;;3.13
78961;BMP280;68362;45.970;12.646;2024-02-04T01:18:36;101980.06;;;3.04
78961;BMP280;68362;45.970;12.646;2024-02-04T01:19:38;101970.59;;;3.24
78961;BMP280;68362;45.970;12.646;2024-02-04T01:20:41;101959.09;;;3.26
78961;BMP280;68362;45.970;12.646;2024-02-04T01:21:43;101954.00;;;2.96
78961;BMP280;68362;45.970;12.646;2024-02-04T01:22:46;101947.88;;;2.76
78961;BMP280;68362;45.970;12.646;2024-02-04T01:23:49;101950.22;;;2.79
78961;BMP280;68362;45.970;12.646;2024-02-04T01:24:51;101960.41;;;2.71
78961;BMP280;68362;45.970;12.646;2024-02-04T01:25:53;101964.47;;;2.64
78961;BMP280;68362;45.970;12.646;2024-02-04T01:26:55;101961.41;;;2.80
78961;BMP280;68362;45.970;12.646;2024-02-04T01:27:58;101958.41;;;2.84
78961;BMP280;68362;45.970;12.646;2024-02-04T01:29:00;101954.47;;;3.11
78961;BMP280;68362;45.970;12.646;2024-02-04T01:30:04;101962.25;;;3.20
78961;BMP280;68362;45.970;12.646;2024-02-04T01:31:06;101954.25;;;2.72
78961;BMP280;68362;45.970;12.646;2024-02-04T01:32:08;101960.50;;;2.90
78961;BMP280;68362;45.970;12.646;2024-02-04T01:33:10;101955.38;;;3.10
78961;BMP280;68362;45.970;12.646;2024-02-04T01:34:13;101953.34;;;3.13
78961;BMP280;68362;45.970;12.646;2024-02-04T01:35:15;101958.81;;;3.10
78961;BMP280;68362;45.970;12.646;2024-02-04T01:36:17;101966.16;;;3.05
78961;BMP280;68362;45.970;12.646;2024-02-04T01:37:20;101967.44;;;3.20
78961;BMP280;68362;45.970;12.646;2024-02-04T01:38:22;101971.81;;;3.39
78961;BMP280;68362;45.970;12.646;2024-02-04T01:39:25;101963.81;;;3.52
78961;BMP280;68362;45.970;12.646;2024-02-04T01:40:27;101957.13;;;3.59
78961;BMP280;68362;45.970;12.646;2024-02-04T01:41:29;101958.78;;;3.60
78961;BMP280;68362;45.970;12.646;2024-02-04T01:42:31;101953.00;;;3.37
78961;BMP280;68362;45.970;12.646;2024-02-04T01:43:33;101966.31;;;3.13
78961;BMP280;68362;45.970;12.646;2024-02-04T01:44:36;101962.50;;;3.17
78961;BMP280;68362;45.970;12.646;2024-02-04T01:45:38;101957.91;;;3.40
78961;BMP280;68362;45.970;12.646;2024-02-04T01:46:40;101965.03;;;3.48
78961;BMP280;68362;45.970;12.646;2024-02-04T01:47:42;101954.25;;;3.53
78961;BMP280;68362;45.970;12.646;2024-02-04T01:48:45;101960.25;;;3.53
78961;BMP280;68362;45.970;12.646;2024-02-04T01:49:48;101960.00;;;3.37
78961;BMP280;68362;45.970;12.646;2024-02-04T01:50:50;101957.75;;;3.22
78961;BMP280;68362;45.970;12.646;2024-02-04T01:51:54;101955.28;;;3.21
78961;BMP280;68362;45.970;12.646;2024-02-04T01:52:57;101961.31;;;3.41
78961;BMP280;68362;45.970;12.646;2024-02-04T01:54:00;101956.97;;;3.51
78961;BMP280;68362;45.970;12.646;2024-02-04T01:55:04;101966.13;;;3.55
78961;BMP280;68362;45.970;12.646;2024-02-04T01:56:07;101967.53;;;3.09
78961;BMP280;68362;45.970;12.646;2024-02-04T01:57:10;101962.88;;;3.03
78961;BMP280;68362;45.970;12.646;2024-02-04T01:58:12;101961.44;;;3.30
78961;BMP280;68362;45.970;12.646;2024-02-04T01:59:15;101963.63;;;3.24
78961;BMP280;68362;45.970;12.646;2024-02-04T02:00:18;101958.38;;;3.15
78961;BMP280;68362;45.970;12.646;2024-02-04T02:01:20;101958.59;;;3.33
78961;BMP280;68362;45.970;12.646;2024-02-04T02:02:24;101966.22;;;3.24
78961;BMP280;68362;45.970;12.646;2024-02-04T02:03:27;101960.16;;;3.05
78961;BMP280;68362;45.970;12.646;2024-02-04T02:04:31;101962.25;;;3.20
78961;BMP280;68362;45.970;12.646;2024-02-04T02:05:33;101960.09;;;3.35
78961;BMP280;68362;45.970;12.646;2024-02-04T02:07:45;101951.78;;;3.51
78961;BMP280;68362;45.970;12.646;2024-02-04T02:08:50;101951.31;;;3.17
78961;BMP280;68362;45.970;12.646;2024-02-04T02:09:53;101950.75;;;2.83
78961;BMP280;68362;45.970;12.646;2024-02-04T02:11:03;101954.72;;;2.56
78961;BMP280;68362;45.970;12.646;2024-02-04T02:12:11;101955.75;;;2.44
78961;BMP280;68362;45.970;12.646;2024-02-04T02:13:17;101956.25;;;2.38
78961;BMP280;68362;45.970;12.646;2024-02-04T02:14:26;101950.72;;;2.63
78961;BMP280;68362;45.970;12.646;2024-02-04T02:15:36;101949.50;;;2.67
78961;BMP280;68362;45.970;12.646;2024-02-04T02:16:44;101949.66;;;2.75
78961;BMP280;68362;45.970;12.646;2024-02-04T02:17:52;101956.03;;;3.02
78961;BMP280;68362;45.970;12.646;2024-02-04T02:19:26;101953.63;;;3.10
78961;BMP280;68362;45.970;12.646;2024-02-04T02:22:37;101933.53;;;2.72
78961;BMP280;68362;45.970;12.646;2024-02-04T02:23:46;101939.75;;;2.39
78961;BMP280;68362;45.970;12.646;2024-02-04T02:24:51;101943.38;;;2.26
78961;BMP280;68362;45.970;12.646;2024-02-04T02:25:55;101940.97;;;2.14
78961;BMP280;68362;45.970;12.646;2024-02-04T02:26:57;101943.22;;;2.07
78961;BMP280;68362;45.970;12.646;2024-02-04T02:28:00;101951.25;;;2.25
78961;BMP280;68362;45.970;12.646;2024-02-04T02:29:03;101951.78;;;2.40
78961;BMP280;68362;45.970;12.646;2024-02-04T02:30:06;101959.41;;;2.20
78961;BMP280;68362;45.970;12.646;2024-02-04T02:31:09;101959.16;;;2.02
78961;BMP280;68362;45.970;12.646;2024-02-04T02:32:11;101960.75;;;2.15
78961;BMP280;68362;45.970;12.646;2024-02-04T02:33:13;101956.25;;;2.38
78961;BMP280;68362;45.970;12.646;2024-02-04T02:34:16;101951.84;;;2.49
78961;BMP280;68362;45.970;12.646;2024-02-04T02:35:22;101946.41;;;2.32
78961;BMP280;68362;45.970;12.646;2024-02-04T02:36:24;101951.25;;;2.25
78961;BMP280;68362;45.970;12.646;2024-02-04T02:37:46;101950.81;;;1.99
78961;BMP280;68362;45.970;12.646;2024-02-04T02:38:53;101953.41;;;1.99
78961;BMP280;68362;45.970;12.646;2024-02-04T02:40:07;101958.06;;;2.05
78961;BMP280;68362;45.970;12.646;2024-02-04T02:41:12;101949.75;;;2.22
78961;BMP280;68362;45.970;12.646;2024-02-04T02:42:16;101955.19;;;2.40
78961;BMP280;68362;45.970;12.646;2024-02-04T02:43:19;101949.63;;;2.45
78961;BMP280;68362;45.970;12.646;2024-02-04T02:44:25;101949.53;;;2.56
78961;BMP280;68362;45.970;12.646;2024-02-04T02:45:28;101950.75;;;2.52
78961;BMP280;68362;45.970;12.646;2024-02-04T02:46:30;101943.59;;;2.65
78961;BMP280;68362;45.970;12.646;2024-02-04T02:47:33;101947.41;;;2.61
78961;BMP280;68362;45.970;12.646;2024-02-04T02:48:36;101951.06;;;2.38
78961;BMP280;68362;45.970;12.646;2024-02-04T02:49:38;101939.56;;;2.31
78961;BMP280;68362;45.970;12.646;2024-02-04T02:50:41;101938.44;;;2.23
78961;BMP280;68362;45.970;12.646;2024-02-04T02:51:43;101939.81;;;2.27
78961;BMP280;68362;45.970;12.646;2024-02-04T02:52:46;101938.38;;;2.56
78961;BMP280;68362;45.970;12.646;2024-02-04T02:53:48;101927.13;;;2.66
78961;BMP280;68362;45.970;12.646;2024-02-04T02:54:50;101925.63;;;2.73
78961;BMP280;68362;45.970;12.646;2024-02-04T02:55:53;101920.44;;;2.73
78961;BMP280;68362;45.970;12.646;2024-02-04T02:56:55;101920.34;;;2.54
78961;BMP280;68362;45.970;12.646;2024-02-04T02:57:57;101930.63;;;2.35
78961;BMP280;68362;45.970;12.646;2024-02-04T02:58:59;101928.81;;;2.56
78961;BMP280;68362;45.970;12.646;2024-02-04T03:00:02;101929.28;;;2.61
78961;BMP280;68362;45.970;12.646;2024-02-04T03:01:05;101930.66;;;2.65
78961;BMP280;68362;45.970;12.646;2024-02-04T03:02:08;101925.25;;;2.57
78961;BMP280;68362;45.970;12.646;2024-02-04T03:03:10;101930.50;;;2.15
78961;BMP280;68362;45.970;12.646;2024-02-04T03:04:13;101924.75;;;2.33
78961;BMP280;68362;45.970;12.646;2024-02-04T03:05:16;101929.47;;;2.48
78961;BMP280;68362;45.970;12.646;2024-02-04T03:06:18;101935.53;;;2.59
78961;BMP280;68362;45.970;12.646;2024-02-04T03:07:20;101925.97;;;2.59
78961;BMP280;68362;45.970;12.646;2024-02-04T03:08:22;101935.69;;;2.36
78961;BMP280;68362;45.970;12.646;2024-02-04T03:09:25;101933.28;;;1.91
78961;BMP280;68362;45.970;12.646;2024-02-04T03:10:27;101932.03;;;2.07
78961;BMP280;68362;45.970;12.646;2024-02-04T03:11:29;101924.28;;;2.27
78961;BMP280;68362;45.970;12.646;2024-02-04T03:12:32;101928.91;;;2.24
78961;BMP280;68362;45.970;12.646;2024-02-04T03:13:34;101923.78;;;2.34
78961;BMP280;68362;45.970;12.646;2024-02-04T03:14:36;101926.28;;;2.03
78961;BMP280;68362;45.970;12.646;2024-02-04T03:15:38;101932.03;;;1.86
78961;BMP280;68362;45.970;12.646;2024-02-04T03:16:44;101940.03;;;2.15
78961;BMP280;68362;45.970;12.646;2024-02-04T03:17:47;101931.00;;;2.30
78961;BMP280;68362;45.970;12.646;2024-02-04T03:18:49;101925.94;;;2.28
78961;BMP280;68362;45.970;12.646;2024-02-04T03:19:51;101926.19;;;2.25
78961;BMP280;68362;45.970;12.646;2024-02-04T03:20:56;101920.88;;;1.85
78961;BMP280;68362;45.970;12.646;2024-02-04T03:21:59;101932.78;;;1.76
78961;BMP280;68362;45.970;12.646;2024-02-04T03:23:01;101922.22;;;1.89
78961;BMP280;68362;45.970;12.646;2024-02-04T03:24:03;101919.06;;;1.97
78961;BMP280;68362;45.970;12.646;2024-02-04T03:25:06;101923.69;;;2.14
78961;BMP280;68362;45.970;12.646;2024-02-04T03:26:11;101919.66;;;1.89
78961;BMP280;68362;45.970;12.646;2024-02-04T03:27:13;101917.97;;;1.99
78961;BMP280;68362;45.970;12.646;2024-02-04T03:28:16;101925.81;;;2.09
78961;BMP280;68362;45.970;12.646;2024-02-04T03:29:18;101921.88;;;1.94
78961;BMP280;68362;45.970;12.646;2024-02-04T03:30:20;101927.16;;;1.60
78961;BMP280;68362;45.970;12.646;2024-02-04T03:31:23;101925.72;;;1.78
78961;BMP280;68362;45.970;12.646;2024-02-04T03:32:25;101929.41;;;1.97
78961;BMP280;68362;45.970;12.646;2024-02-04T03:33:29;101930.41;;;2.05
78961;BMP280;68362;45.970;12.646;2024-02-04T03:34:31;101929.06;;;2.01
78961;BMP280;68362;45.970;12.646;2024-02-04T03:35:33;101936.22;;;2.19
78961;BMP280;68362;45.970;12.646;2024-02-04T03:36:38;101944.63;;;2.11
78961;BMP280;68362;45.970;12.646;2024-02-04T03:37:41;101945.38;;;1.70
78961;BMP280;68362;45.970;12.646;2024-02-04T03:38:43;101950.00;;;1.66
78961;BMP280;68362;45.970;12.646;2024-02-04T03:39:45;101948.13;;;1.89
78961;BMP280;68362;45.970;12.646;2024-02-04T03:40:47;101952.06;;;2.04
78961;BMP280;68362;45.970;12.646;2024-02-04T03:41:51;101952.69;;;1.65
78961;BMP280;68362;45.970;12.646;2024-02-04T03:42:53;101957.78;;;1.44
78961;BMP280;68362;45.970;12.646;2024-02-04T03:43:56;101963.59;;;1.68
78961;BMP280;68362;45.970;12.646;2024-02-04T03:44:58;101962.97;;;1.87
78961;BMP280;68362;45.970;12.646;2024-02-04T03:46:01;101959.94;;;1.82
78961;BMP280;68362;45.970;12.646;2024-02-04T03:47:03;101963.47;;;1.81
78961;BMP280;68362;45.970;12.646;2024-02-04T03:48:06;101954.56;;;1.51
78961;BMP280;68362;45.970;12.646;2024-02-04T03:49:08;101959.69;;;0.97
78961;BMP280;68362;45.970;12.646;2024-02-04T03:50:11;101957.56;;;0.91
78961;BMP280;68362;45.970;12.646;2024-02-04T03:51:17;101947.19;;;1.13
78961;BMP280;68362;45.970;12.646;2024-02-04T03:52:20;101954.84;;;1.37
78961;BMP280;68362;45.970;12.646;2024-02-04T03:53:22;101948.38;;;1.31
78961;BMP280;68362;45.970;12.646;2024-02-04T03:54:28;101943.41;;;1.62
78961;BMP280;68362;45.970;12.646;2024-02-04T03:55:30;101947.22;;;1.47
78961;BMP280;68362;45.970;12.646;2024-02-04T03:56:32;101949.75;;;1.58
78961;BMP280;68362;45.970;12.646;2024-02-04T03:57:34;101950.88;;;1.76
78961;BMP280;68362;45.970;12.646;2024-02-04T03:58:37;101952.41;;;1.68
78961;BMP280;68362;45.970;12.646;2024-02-04T03:59:40;101950.09;;;1.65
78961;BMP280;68362;45.970;12.646;2024-02-04T04:00:42;101946.94;;;1.61
78961;BMP280;68362;45.970;12.646;2024-02-04T04:01:48;101950.00;;;1.66
78961;BMP280;68362;45.970;12.646;2024-02-04T04:02:52;101939.38;;;1.69
78961;BMP280;68362;45.970;12.646;2024-02-04T04:03:54;101941.31;;;1.33
78961;BMP280;68362;45.970;12.646;2024-02-04T04:04:56;101945.34;;;1.49
78961;BMP280;68362;45.970;12.646;2024-02-04T04:05:59;101946.66;;;1.75
78961;BMP280;68362;45.970;12.646;2024-02-04T04:07:02;101933.91;;;1.84
78961;BMP280;68362;45.970;12.646;2024-02-04T04:08:04;101929.31;;;1.87
78961;BMP280;68362;45.970;12.646;2024-02-04T04:09:06;101931.22;;;1.85
78961;BMP280;68362;45.970;12.646;2024-02-04T04:10:09;101920.69;;;1.87
78961;BMP280;68362;45.970;12.646;2024-02-04T04:11:11;101929.59;;;1.73
78961;BMP280;68362;45.970;12.646;2024-02-04T04:12:14;101937.00;;;1.77
78961;BMP280;68362;45.970;12.646;2024-02-04T04:13:16;101936.50;;;1.84
78961;BMP280;68362;45.970;12.646;2024-02-04T04:14:18;101939.28;;;1.92
78961;BMP280;68362;45.970;12.646;2024-02-04T04:15:20;101934.34;;;1.89
78961;BMP280;68362;45.970;12.646;2024-02-04T04:16:23;101922.63;;;1.85
78961;BMP280;68362;45.970;12.646;2024-02-04T04:17:25;101929.19;;;1.89
78961;BMP280;68362;45.970;12.646;2024-02-04T04:18:27;101934.41;;;1.34
78961;BMP280;68362;45.970;12.646;2024-02-04T04:19:30;101940.16;;;1.38
78961;BMP280;68362;45.970;12.646;2024-02-04T04:20:35;101940.94;;;1.61
78961;BMP280;68362;45.970;12.646;2024-02-04T04:21:37;101938.22;;;1.62
78961;BMP280;68362;45.970;12.646;2024-02-04T04:22:40;101935.41;;;1.65
78961;BMP280;68362;45.970;12.646;2024-02-04T04:23:43;101936.38;;;1.42
78961;BMP280;68362;45.970;12.646;2024-02-04T04:24:45;101941.72;;;1.29
78961;BMP280;68362;45.970;12.646;2024-02-04T04:25:47;101936.84;;;1.36
78961;BMP280;68362;45.970;12.646;2024-02-04T04:26:50;101936.38;;;1.30
78961;BMP280;68362;45.970;12.646;2024-02-04T04:27:52;101933.38;;;1.03
78961;BMP280;68362;45.970;12.646;2024-02-04T04:28:54;101938.41;;;1.27
78961;BMP280;68362;45.970;12.646;2024-02-04T04:29:56;101941.81;;;1.16
78961;BMP280;68362;45.970;12.646;2024-02-04T04:30:59;101941.31;;;1.45
78961;BMP280;68362;45.970;12.646;2024-02-04T04:32:01;101941.22;;;1.46
78961;BMP280;68362;45.970;12.646;2024-02-04T04:33:04;101953.16;;;1.59
78961;BMP280;68362;45.970;12.646;2024-02-04T04:34:06;101942.69;;;1.60
78961;BMP280;68362;45.970;12.646;2024-02-04T04:35:08;101948.47;;;1.52
78961;BMP280;68362;45.970;12.646;2024-02-04T04:36:11;101953.25;;;1.68
78961;BMP280;68362;45.970;12.646;2024-02-04T04:37:13;101956.47;;;1.61
78961;BMP280;68362;45.970;12.646;2024-02-04T04:38:15;101958.28;;;1.49
78961;BMP280;68362;45.970;12.646;2024-02-04T04:39:17;101957.69;;;1.34
78961;BMP280;68362;45.970;12.646;2024-02-04T04:40:20;101959.09;;;1.27
78961;BMP280;68362;45.970;12.646;2024-02-04T04:41:22;101963.53;;;1.47
78961;BMP280;68362;45.970;12.646;2024-02-04T04:42:24;101968.56;;;1.60
78961;BMP280;68362;45.970;12.646;2024-02-04T04:43:26;101968.75;;;1.68
78961;BMP280;68362;45.970;12.646;2024-02-04T04:44:29;101971.09;;;1.83
78961;BMP280;68362;45.970;12.646;2024-02-04T04:45:32;101962.00;;;1.56
78961;BMP280;68362;45.970;12.646;2024-02-04T04:46:37;101967.91;;;1.24
78961;BMP280;68362;45.970;12.646;2024-02-04T04:47:39;101970.69;;;1.10
78961;BMP280;68362;45.970;12.646;2024-02-04T04:48:42;101969.31;;;1.06
78961;BMP280;68362;45.970;12.646;2024-02-04T04:49:44;101966.97;;;1.14
78961;BMP280;68362;45.970;12.646;2024-02-04T04:50:47;101961.22;;;1.11
78961;BMP280;68362;45.970;12.646;2024-02-04T04:51:50;101952.38;;;1.36
78961;BMP280;68362;45.970;12.646;2024-02-04T04:52:52;101952.81;;;1.52
78961;BMP280;68362;45.970;12.646;2024-02-04T04:53:54;101953.75;;;1.51
78961;BMP280;68362;45.970;12.646;2024-02-04T04:54:56;101953.09;;;1.26
78961;BMP280;68362;45.970;12.646;2024-02-04T04:55:59;101959.31;;;1.46
78961;BMP280;68362;45.970;12.646;2024-02-04T04:57:01;101961.50;;;1.51
78961;BMP280;68362;45.970;12.646;2024-02-04T04:58:03;101961.66;;;1.61
78961;BMP280;68362;45.970;12.646;2024-02-04T04:59:09;101959.13;;;1.70
78961;BMP280;68362;45.970;12.646;2024-02-04T05:00:12;101957.94;;;1.74
78961;BMP280;68362;45.970;12.646;2024-02-04T05:01:15;101967.81;;;1.80
78961;BMP280;68362;45.970;12.646;2024-02-04T05:02:18;101968.72;;;1.14
78961;BMP280;68362;45.970;12.646;2024-02-04T05:03:20;101963.78;;;0.88
78961;BMP280;68362;45.970;12.646;2024-02-04T05:04:23;101962.16;;;0.87
78961;BMP280;68362;45.970;12.646;2024-02-04T05:05:27;101967.66;;;1.27
78961;BMP280;68362;45.970;12.646;2024-02-04T05:06:29;101958.94;;;1.40
78961;BMP280;68362;45.970;12.646;2024-02-04T05:07:31;101969.91;;;1.43
78961;BMP280;68362;45.970;12.646;2024-02-04T05:08:35;101972.69;;;0.95
78961;BMP280;68362;45.970;12.646;2024-02-04T05:09:37;101974.81;;;1.01
78961;BMP280;68362;45.970;12.646;2024-02-04T05:10:39;101980.00;;;1.13
78961;BMP280;68362;45.970;12.646;2024-02-04T05:11:41;101979.06;;;1.14
78961;BMP280;68362;45.970;12.646;2024-02-04T05:12:44;101971.66;;;0.87
78961;BMP280;68362;45.970;12.646;2024-02-04T05:13:46;101978.38;;;1.00
78961;BMP280;68362;45.970;12.646;2024-02-04T05:14:48;101979.91;;;1.03
78961;BMP280;68362;45.970;12.646;2024-02-04T05:15:51;101978.25;;;1.24
78961;BMP280;68362;45.970;12.646;2024-02-04T05:16:53;101980.56;;;0.82
78961;BMP280;68362;45.970;12.646;2024-02-04T05:17:55;101980.66;;;0.70
78961;BMP280;68362;45.970;12.646;2024-02-04T05:18:57;101974.66;;;0.58
78961;BMP280;68362;45.970;12.646;2024-02-04T05:20:00;101979.59;;;0.61
78961;BMP280;68362;45.970;12.646;2024-02-04T05:21:04;101963.25;;;0.49
78961;BMP280;68362;45.970;12.646;2024-02-04T05:22:07;101980.59;;;0.47
78961;BMP280;68362;45.970;12.646;2024-02-04T05:23:09;101987.41;;;0.37
78961;BMP280;68362;45.970;12.646;2024-02-04T05:24:11;101986.78;;;0.80
78961;BMP280;68362;45.970;12.646;2024-02-04T05:25:14;101982.94;;;0.97
78961;BMP280;68362;45.970;12.646;2024-02-04T05:26:19;101987.38;;;0.95
78961;BMP280;68362;45.970;12.646;2024-02-04T05:27:21;101980.94;;;1.12
78961;BMP280;68362;45.970;12.646;2024-02-04T05:28:23;101978.50;;;0.99
78961;BMP280;68362;45.970;12.646;2024-02-04T05:29:26;101982.41;;;0.69
78961;BMP280;68362;45.970;12.646;2024-02-04T05:30:28;101980.22;;;0.76
78961;BMP280;68362;45.970;12.646;2024-02-04T05:31:30;101981.06;;;0.99
78961;BMP280;68362;45.970;12.646;2024-02-04T05:32:32;101971.09;;;1.05
78961;BMP280;68362;45.970;12.646;2024-02-04T05:33:35;101974.72;;;1.14
78961;BMP280;68362;45.970;12.646;2024-02-04T05:34:37;101974.50;;;1.28
78961;BMP280;68362;45.970;12.646;2024-02-04T05:35:41;101976.59;;;1.35
78961;BMP280;68362;45.970;12.646;2024-02-04T05:36:44;101987.06;;;0.99
78961;BMP280;68362;45.970;12.646;2024-02-04T05:37:47;101985.47;;;0.74
78961;BMP280;68362;45.970;12.646;2024-02-04T05:38:49;101982.84;;;0.87
78961;BMP280;68362;45.970;12.646;2024-02-04T05:39:51;101984.03;;;1.05
78961;BMP280;68362;45.970;12.646;2024-02-04T05:40:54;101984.78;;;0.72
78961;BMP280;68362;45.970;12.646;2024-02-04T05:41:57;101979.16;;;0.78
78961;BMP280;68362;45.970;12.646;2024-02-04T05:42:59;101984.34;;;1.01
78961;BMP280;68362;45.970;12.646;2024-02-04T05:44:01;101977.78;;;0.85
78961;BMP280;68362;45.970;12.646;2024-02-04T05:45:04;101982.63;;;0.55
78961;BMP280;68362;45.970;12.646;2024-02-04T05:46:08;101986.41;;;0.03
78961;BMP280;68362;45.970;12.646;2024-02-04T05:47:10;101984.59;;;0.40
78961;BMP280;68362;45.970;12.646;2024-02-04T05:48:12;101986.41;;;0.62
78961;BMP280;68362;45.970;12.646;2024-02-04T05:49:15;101982.44;;;0.80
78961;BMP280;68362;45.970;12.646;2024-02-04T05:50:18;101992.47;;;0.96
78961;BMP280;68362;45.970;12.646;2024-02-04T05:51:21;101991.16;;;0.91
78961;BMP280;68362;45.970;12.646;2024-02-04T05:52:24;101991.88;;;1.04
78961;BMP280;68362;45.970;12.646;2024-02-04T05:53:26;101982.72;;;1.00
78961;BMP280;68362;45.970;12.646;2024-02-04T05:54:28;101991.03;;;0.92
78961;BMP280;68362;45.970;12.646;2024-02-04T05:55:31;101993.59;;;0.92
78961;BMP280;68362;45.970;12.646;2024-02-04T05:56:34;101999.78;;;0.67
78961;BMP280;68362;45.970;12.646;2024-02-04T05:57:36;102003.50;;;0.87
78961;BMP280;68362;45.970;12.646;2024-02-04T05:58:39;102010.66;;;0.95
78961;BMP280;68362;45.970;12.646;2024-02-04T05:59:41;102008.78;;;0.97
78961;BMP280;68362;45.970;12.646;2024-02-04T06:00:44;102007.50;;;1.02